Time;durP1;ratioP1;P1;durP2;ratioP2;P2;SDS_P1;SDS_P2;PMS_P1;PMS_P2;Temp;Humidity;BMP_temperature;BMP_pressure;BME280_temperature;BME280_humidity;BME280_pressure;Samples;Min_cycle;Max_cycle;Signal;HPM_P1;HPM_P2
2023/07/25 00:00:25;;;;;;;6.18;1.90;;;;;;;17.29;63.33;100846.53;5030705;28;20029;-43
2023/07/25 00:02:51;;;;;;;5.18;1.80;;;;;;;17.29;63.34;100840.38;5030299;28;20036;-48
2023/07/25 00:05:16;;;;;;;5.22;1.88;;;;;;;17.31;63.21;100846.53;5031100;28;20514;-45
2023/07/25 00:07:41;;;;;;;5.25;2.00;;;;;;;17.28;63.48;100844.78;5030468;28;20044;-45
2023/07/25 00:10:07;;;;;;;3.92;1.85;;;;;;;17.27;63.41;100843.03;5030952;28;20119;-44
2023/07/25 00:12:35;;;;;;;3.50;1.90;;;;;;;17.27;63.60;100844.78;5030024;28;20107;-44
2023/07/25 00:15:00;;;;;;;5.85;1.90;;;;;;;17.20;64.15;100851.91;5031318;28;20060;-46
2023/07/25 00:17:25;;;;;;;7.07;2.10;;;;;;;17.21;64.24;100844.88;5030133;28;20037;-42
2023/07/25 00:19:51;;;;;;;6.70;2.08;;;;;;;17.18;64.49;100839.69;5030509;28;20029;-44
2023/07/25 00:22:16;;;;;;;4.78;1.80;;;;;;;17.16;64.58;100839.69;5030386;28;20036;-47
2023/07/25 00:24:41;;;;;;;7.47;2.13;;;;;;;17.20;64.40;100836.09;5029914;28;20042;-43
2023/07/25 00:27:06;;;;;;;6.30;2.10;;;;;;;17.21;64.56;100832.59;5031232;28;20029;-45
2023/07/25 00:29:32;;;;;;;6.03;2.10;;;;;;;17.22;65.08;100829.06;5030470;28;20051;-42
2023/07/25 00:31:57;;;;;;;5.13;1.88;;;;;;;17.25;64.51;100829.03;5030077;28;20128;-43
2023/07/25 00:34:23;;;;;;;5.10;2.00;;;;;;;17.19;64.92;100826.50;5030747;28;20075;-47
2023/07/25 00:36:51;;;;;;;5.93;1.90;;;;;;;17.25;64.70;100830.81;5030500;28;20139;-48
2023/07/25 00:39:16;;;;;;;5.22;2.10;;;;;;;17.28;64.77;100823.69;5030697;28;20430;-45
2023/07/25 00:41:41;;;;;;;6.07;1.88;;;;;;;17.31;64.31;100825.44;5029581;28;20030;-44
2023/07/25 00:44:07;;;;;;;7.65;1.90;;;;;;;17.26;64.23;100828.13;5030271;28;20128;-47
2023/07/25 00:46:33;;;;;;;9.85;2.10;;;;;;;17.00;64.61;100828.50;5029927;28;20037;-43
2023/07/25 00:48:59;;;;;;;8.20;2.00;;;;;;;17.06;64.35;100824.03;5030310;28;20136;-43
2023/07/25 00:51:24;;;;;;;6.95;2.00;;;;;;;17.17;63.78;100822.13;5030030;28;20026;-44
2023/07/25 00:53:51;;;;;;;4.70;2.00;;;;;;;17.19;63.46;100810.69;5029781;28;20037;-46
2023/07/25 00:56:17;;;;;;;4.43;1.80;;;;;;;17.08;63.72;100823.09;5030834;28;20041;-44
2023/07/25 00:58:42;;;;;;;4.90;1.70;;;;;;;17.05;63.87;100825.81;5030080;28;20037;-45
2023/07/25 01:01:08;;;;;;;5.13;1.73;;;;;;;17.05;63.96;100823.16;5029435;28;20037;-47
2023/07/25 01:03:36;;;;;;;5.28;1.90;;;;;;;17.06;64.17;100822.28;5029838;28;20038;-45
2023/07/25 01:06:03;;;;;;;5.55;1.85;;;;;;;17.07;63.97;100824.03;5031731;28;20418;-44
2023/07/25 01:08:28;;;;;;;6.32;1.90;;;;;;;17.04;64.32;100822.28;5030795;28;20525;-44
2023/07/25 01:10:54;;;;;;;6.25;2.03;;;;;;;17.05;64.14;100817.91;5029749;28;20091;-43
2023/07/25 01:13:20;;;;;;;8.13;2.00;;;;;;;17.01;64.12;100825.00;5029847;28;20033;-44
2023/07/25 01:15:45;;;;;;;5.03;2.00;;;;;;;16.97;64.07;100825.03;5029859;28;20033;-42
2023/07/25 01:18:11;;;;;;;4.82;1.98;;;;;;;16.93;64.44;100818.94;5030224;28;20094;-44
2023/07/25 01:20:37;;;;;;;5.43;1.95;;;;;;;16.90;64.57;100820.72;5029569;28;20504;-49
2023/07/25 01:23:05;;;;;;;3.65;1.70;;;;;;;16.90;64.61;100824.22;5030948;28;20040;-44
2023/07/25 01:25:31;;;;;;;5.57;1.80;;;;;;;16.89;64.70;100824.28;5031181;28;20087;-45
2023/07/25 01:27:56;;;;;;;6.82;1.85;;;;;;;16.90;64.75;100823.34;5031677;28;20730;-46
2023/07/25 01:30:21;;;;;;;7.03;1.90;;;;;;;16.92;64.40;100822.47;5030266;28;20037;-46
2023/07/25 01:32:47;;;;;;;5.13;1.67;;;;;;;16.88;64.55;100820.78;5030134;28;20657;-43
2023/07/25 01:35:13;;;;;;;4.72;2.10;;;;;;;16.89;64.74;100813.75;5031206;28;20048;-42
2023/07/25 01:37:38;;;;;;;4.20;2.03;;;;;;;16.86;64.71;100811.13;5030249;28;20042;-45
2023/07/25 01:40:04;;;;;;;5.80;1.52;;;;;;;16.90;64.56;100812.81;5029481;28;20034;-49
2023/07/25 01:42:29;;;;;;;9.80;2.00;;;;;;;16.90;64.78;100815.47;5029111;28;20041;-43
2023/07/25 01:44:55;;;;;;;4.47;1.73;;;;;;;16.92;64.83;100811.06;5029115;28;20030;-46
2023/07/25 01:47:25;;;;;;;3.63;1.52;;;;;;;16.98;64.84;100805.72;5029681;28;20410;-47
2023/07/25 01:49:50;;;;;;;4.25;1.60;;;;;;;16.97;64.88;100807.47;5029179;28;20561;-46
2023/07/25 01:52:16;;;;;;;4.85;1.80;;;;;;;17.01;65.10;100808.31;5029180;28;20037;-44
2023/07/25 01:54:41;;;;;;;5.57;1.75;;;;;;;17.06;64.85;100797.69;5028855;28;20026;-44
2023/07/25 01:57:06;;;;;;;5.35;1.80;;;;;;;17.08;65.30;100801.19;5029317;28;20065;-45
2023/07/25 01:59:32;;;;;;;5.13;1.77;;;;;;;17.13;65.23;100794.97;5028556;28;20037;-44
2023/07/25 02:01:57;;;;;;;5.20;1.80;;;;;;;17.18;65.20;100790.50;5029053;28;20380;-45
2023/07/25 02:04:22;;;;;;;4.75;1.80;;;;;;;17.26;65.17;100798.28;5029532;28;20503;-42
2023/07/25 02:06:48;;;;;;;4.72;1.80;;;;;;;17.36;65.17;100807.78;5029055;28;20113;-47
2023/07/25 02:09:13;;;;;;;5.05;1.77;;;;;;;17.46;65.32;100804.09;5029605;28;20117;-45
2023/07/25 02:11:38;;;;;;;7.80;1.73;;;;;;;17.29;65.80;100799.09;5028327;28;20048;-43
2023/07/25 02:14:04;;;;;;;3.67;1.50;;;;;;;17.58;64.97;100803.91;5029053;28;20042;-46
2023/07/25 02:16:29;;;;;;;5.53;1.58;;;;;;;17.71;64.75;100804.59;5029249;28;20113;-45
2023/07/25 02:18:54;;;;;;;7.40;1.88;;;;;;;17.81;64.46;100800.91;5028977;28;20037;-45
2023/07/25 02:21:20;;;;;;;5.88;2.03;;;;;;;17.88;64.23;100797.28;5028922;28;20053;-46
2023/07/25 02:23:45;;;;;;;5.00;1.70;;;;;;;17.94;64.03;100801.56;5028883;28;20427;-44
2023/07/25 02:26:10;;;;;;;4.90;1.70;;;;;;;18.01;63.83;100796.16;5030940;28;20057;-45
2023/07/25 02:28:35;;;;;;;6.07;1.63;;;;;;;17.83;64.99;100796.47;5032247;28;20033;-44
2023/07/25 02:31:01;;;;;;;3.88;1.80;;;;;;;17.95;64.88;100791.00;5032056;28;20037;-44
2023/07/25 02:33:26;;;;;;;5.70;1.73;;;;;;;18.11;64.73;100796.88;5032755;28;20044;-46
2023/07/25 02:35:51;;;;;;;6.88;2.00;;;;;;;18.13;64.76;100800.34;5032294;28;20036;-44
2023/07/25 02:38:17;;;;;;;6.20;1.77;;;;;;;18.06;65.24;100806.63;5032757;28;20041;-46
2023/07/25 02:40:44;;;;;;;5.90;1.88;;;;;;;17.73;67.18;100805.47;5031823;28;20427;-42
2023/07/25 02:43:09;;;;;;;5.97;1.80;;;;;;;17.97;66.63;100798.88;5033907;28;20508;-44
2023/07/25 02:45:35;;;;;;;5.28;1.90;;;;;;;17.96;66.72;100798.00;5034752;28;20048;-46
2023/07/25 02:48:00;;;;;;;5.05;1.85;;;;;;;18.23;65.76;100802.78;5033935;28;20034;-43
2023/07/25 02:50:26;;;;;;;4.38;1.73;;;;;;;18.35;65.38;100799.03;5032225;28;20033;-45
2023/07/25 02:52:51;;;;;;;5.18;1.55;;;;;;;18.32;65.51;100801.72;5032274;28;20037;-48
2023/07/25 02:55:18;;;;;;;2.65;1.50;;;;;;;18.21;65.88;100808.97;5032415;28;20030;-43
2023/07/25 02:57:43;;;;;;;6.13;1.92;;;;;;;18.32;65.82;100807.00;5031866;28;20049;-45
2023/07/25 03:00:09;;;;;;;5.05;1.70;;;;;;;18.41;65.87;100798.91;5032328;28;20036;-43
2023/07/25 03:02:34;;;;;;;4.90;1.80;;;;;;;18.38;66.33;100798.97;5031214;28;20038;-44
2023/07/25 03:05:00;;;;;;;7.05;2.03;;;;;;;18.40;66.44;100801.59;5033295;28;20392;-44
2023/07/25 03:07:25;;;;;;;6.80;1.73;;;;;;;18.30;66.98;100802.69;5033068;28;20095;-42
2023/07/25 03:09:50;;;;;;;7.40;2.13;;;;;;;18.29;67.43;100796.53;5032531;28;20121;-44
2023/07/25 03:12:16;;;;;;;5.50;1.80;;;;;;;18.23;67.66;100797.50;5034460;28;20408;-48
2023/07/25 03:14:41;;;;;;;5.80;1.95;;;;;;;18.27;67.39;100795.66;5033269;28;20038;-45
2023/07/25 03:17:06;;;;;;;4.85;1.88;;;;;;;18.22;67.65;100793.13;5032737;28;20664;-44
2023/07/25 03:19:32;;;;;;;6.32;2.20;;;;;;;18.18;67.91;100791.44;5032274;28;20490;-45
2023/07/25 03:21:57;;;;;;;4.53;2.03;;;;;;;18.17;68.04;100794.13;5032399;28;20043;-44
2023/07/25 03:24:22;;;;;;;8.70;2.20;;;;;;;18.10;68.59;100793.38;5033456;28;20448;-47
2023/07/25 03:26:48;;;;;;;4.80;1.98;;;;;;;17.87;70.07;100795.53;5031996;28;20104;-45
2023/07/25 03:29:13;;;;;;;6.47;2.05;;;;;;;18.07;69.85;100796.03;5032096;28;20068;-46
2023/07/25 03:31:38;;;;;;;5.00;2.30;;;;;;;18.29;68.91;100793.88;5031302;28;20096;-43
2023/07/25 03:34:04;;;;;;;4.35;2.08;;;;;;;18.40;68.52;100788.38;5031718;28;20041;-44
2023/07/25 03:36:29;;;;;;;5.10;2.10;;;;;;;18.35;68.78;100795.53;5032299;28;20065;-46
2023/07/25 03:38:55;;;;;;;9.43;2.30;;;;;;;18.18;69.72;100807.25;5033512;28;20113;-42
2023/07/25 03:41:20;;;;;;;5.85;1.92;;;;;;;18.28;69.37;100813.25;5033581;28;20558;-42
2023/07/25 03:43:45;;;;;;;7.03;2.08;;;;;;;18.02;69.90;100807.59;5033704;28;20029;-44
2023/07/25 03:46:11;;;;;;;6.45;2.03;;;;;;;18.22;67.63;100802.81;5033104;28;20047;-46
2023/07/25 03:48:36;;;;;;;7.13;2.13;;;;;;;18.12;66.20;100793.31;5033277;28;20395;-47
2023/07/25 03:51:01;;;;;;;5.22;1.92;;;;;;;18.14;64.64;100797.66;5036424;28;20119;-43
2023/07/25 03:53:27;;;;;;;7.63;1.80;;;;;;;18.47;63.35;100797.94;5033387;28;20771;-45
2023/07/25 03:55:52;;;;;;;4.93;1.70;;;;;;;18.43;62.95;100807.66;5030813;28;20034;-45
2023/07/25 03:58:17;;;;;;;7.18;1.80;;;;;;;18.56;62.03;100801.28;5031376;28;20423;-43
2023/07/25 04:00:43;;;;;;;4.68;1.50;;;;;;;18.59;61.26;100800.34;5029272;28;20128;-49
2023/07/25 04:03:08;;;;;;;6.85;1.80;;;;;;;18.78;60.90;100801.72;5031329;28;20032;-47
2023/07/25 04:05:33;;;;;;;6.85;1.73;;;;;;;18.77;60.42;100799.09;5031322;28;20124;-44
2023/07/25 04:07:59;;;;;;;6.55;1.50;;;;;;;18.83;60.05;100798.97;5031704;28;20033;-43
2023/07/25 04:10:25;;;;;;;6.72;1.65;;;;;;;18.76;60.53;100806.16;5031028;28;20030;-42
2023/07/25 04:12:51;;;;;;;5.03;1.70;;;;;;;18.84;59.89;100796.28;5030596;28;20078;-48
2023/07/25 04:15:16;;;;;;;6.72;1.83;;;;;;;18.83;60.27;100801.59;5030879;28;20029;-44
2023/07/25 04:17:41;;;;;;;5.63;1.50;;;;;;;18.52;61.55;100810.13;5030596;28;20110;-44
2023/07/25 04:20:07;;;;;;;8.55;1.80;;;;;;;18.69;61.29;100807.16;5030974;28;20071;-48
2023/07/25 04:22:33;;;;;;;7.97;1.70;;;;;;;18.59;61.50;100806.50;5029024;28;20539;-49
2023/07/25 04:24:58;;;;;;;5.93;1.75;;;;;;;18.74;61.24;100812.34;5031263;28;20044;-44
2023/07/25 04:27:23;;;;;;;8.30;1.60;;;;;;;18.92;60.50;100810.19;5031130;28;20566;-44
2023/07/25 04:29:49;;;;;;;5.60;1.88;;;;;;;18.93;60.25;100811.94;5030596;28;20060;-44
2023/07/25 04:32:14;;;;;;;4.30;1.45;;;;;;;19.19;59.17;100815.75;5030559;28;20053;-43
2023/07/25 04:34:40;;;;;;;5.57;1.80;;;;;;;19.09;59.66;100816.88;5029336;28;20488;-44
2023/07/25 04:37:05;;;;;;;8.27;1.65;;;;;;;19.15;59.41;100809.66;5030994;28;20420;-43
2023/07/25 04:39:31;;;;;;;5.05;1.55;;;;;;;19.07;59.86;100819.56;5030458;28;20488;-43
2023/07/25 04:41:56;;;;;;;5.90;1.70;;;;;;;19.42;58.86;100821.38;5030198;28;20082;-45
2023/07/25 04:44:21;;;;;;;6.47;1.50;;;;;;;19.37;59.11;100823.28;5031060;28;20041;-42
2023/07/25 04:46:47;;;;;;;6.95;2.00;;;;;;;19.48;58.30;100826.56;5030228;28;20029;-44
2023/07/25 04:49:12;;;;;;;6.75;1.80;;;;;;;19.39;58.52;100824.94;5030087;28;20029;-43
2023/07/25 04:51:40;;;;;;;3.88;1.42;;;;;;;19.43;57.98;100820.47;5029741;28;20033;-44
2023/07/25 04:54:07;;;;;;;5.63;1.65;;;;;;;19.69;57.53;100823.41;5031033;28;20033;-44
2023/07/25 04:56:32;;;;;;;6.85;1.60;;;;;;;19.81;57.13;100832.81;5031134;28;20059;-49
2023/07/25 04:58:57;;;;;;;4.82;1.55;;;;;;;19.92;56.69;100824.59;5035294;28;20033;-48
2023/07/25 05:01:23;;;;;;;7.82;1.38;;;;;;;19.97;55.70;100820.03;5030756;28;20538;-43
2023/07/25 05:03:48;;;;;;;6.35;1.48;;;;;;;20.14;55.05;100823.97;5029749;28;20084;-45
2023/07/25 05:06:13;;;;;;;7.75;1.60;;;;;;;19.85;53.95;100821.22;5030620;28;20616;-45
2023/07/25 05:08:39;;;;;;;7.25;1.42;;;;;;;20.03;54.07;100820.75;5030742;28;20526;-43
2023/07/25 05:11:04;;;;;;;4.93;1.30;;;;;;;20.16;53.77;100827.47;5030473;28;20044;-43
2023/07/25 05:13:30;;;;;;;4.70;1.40;;;;;;;19.83;53.84;100831.84;5030578;28;20034;-44
2023/07/25 05:15:55;;;;;;;6.70;1.50;;;;;;;19.91;54.05;100833.44;5029738;28;20411;-42
2023/07/25 05:18:20;;;;;;;4.68;1.52;;;;;;;19.92;54.58;100832.53;5029606;28;20439;-43
2023/07/25 05:20:46;;;;;;;8.32;3.88;;;;;;;20.26;53.95;100841.31;5028668;28;20040;-45
2023/07/25 05:23:11;;;;;;;7.15;2.50;;;;;;;20.27;52.50;100835.13;5029860;28;20380;-43
2023/07/25 05:25:37;;;;;;;5.90;2.13;;;;;;;20.31;52.02;100836.75;5029330;28;20053;-46
2023/07/25 05:28:03;;;;;;;5.68;1.50;;;;;;;20.47;52.60;100829.31;5030094;28;20051;-44
2023/07/25 05:30:28;;;;;;;6.38;1.60;;;;;;;20.42;50.89;100831.22;5029086;28;20496;-46
2023/07/25 05:32:54;;;;;;;5.65;1.40;;;;;;;20.44;50.40;100832.03;5030049;28;20499;-44
2023/07/25 05:35:19;;;;;;;7.20;1.80;;;;;;;20.65;50.20;100832.31;5030898;28;20380;-45
2023/07/25 05:37:44;;;;;;;2.38;1.30;;;;;;;20.84;49.70;100832.66;5031004;28;20124;-49
2023/07/25 05:40:10;;;;;;;7.35;1.40;;;;;;;21.04;49.05;100832.06;5030838;28;20041;-43
2023/07/25 05:42:35;;;;;;;6.78;1.75;;;;;;;20.71;49.83;100839.22;5030377;28;20037;-44
2023/07/25 05:45:01;;;;;;;5.50;1.70;;;;;;;21.02;49.55;100828.56;5031321;28;20034;-44
2023/07/25 05:47:28;;;;;;;6.55;1.55;;;;;;;21.25;48.01;100828.75;5030983;28;20038;-44
2023/07/25 05:49:54;;;;;;;5.18;1.40;;;;;;;21.58;46.73;100831.28;5030031;28;20025;-45
2023/07/25 05:52:19;;;;;;;3.90;1.23;;;;;;;22.24;44.49;100836.13;5030077;28;20045;-45
2023/07/25 05:54:45;;;;;;;5.63;1.20;;;;;;;22.55;42.61;100833.22;5029866;28;20396;-45
2023/07/25 05:57:10;;;;;;;4.03;1.23;;;;;;;23.36;40.65;100826.53;5029561;28;20087;-43
2023/07/25 05:59:36;;;;;;;3.58;1.02;;;;;;;24.05;40.33;100829.91;5029946;28;20036;-49
2023/07/25 06:02:03;;;;;;;3.42;1.25;;;;;;;24.95;38.49;100826.78;5032598;28;20337;-44
2023/07/25 06:04:29;;;;;;;3.60;1.00;;;;;;;25.35;39.27;100828.44;5033994;28;20033;-44
2023/07/25 06:06:54;;;;;;;3.58;0.98;;;;;;;25.13;36.46;100826.88;5034072;28;20056;-48
2023/07/25 06:09:19;;;;;;;5.13;1.17;;;;;;;24.90;38.71;100831.47;5034663;28;20060;-43
2023/07/25 06:11:45;;;;;;;6.53;1.10;;;;;;;25.86;35.95;100840.16;5032499;28;20037;-51
2023/07/25 06:14:10;;;;;;;3.10;1.00;;;;;;;26.32;34.75;100837.88;5033393;28;20407;-43
2023/07/25 06:16:35;;;;;;;5.70;1.27;;;;;;;25.62;36.78;100834.25;5032596;28;20069;-46
2023/07/25 06:19:01;;;;;;;7.72;1.10;;;;;;;25.90;35.86;100832.88;5033400;28;20068;-46
2023/07/25 06:21:26;;;;;;;4.45;1.10;;;;;;;26.02;35.30;100829.59;5032841;28;20041;-45
2023/07/25 06:23:51;;;;;;;4.43;1.00;;;;;;;24.60;37.48;100832.84;5031317;28;20121;-47
2023/07/25 06:26:17;;;;;;;6.07;1.33;;;;;;;25.27;37.05;100835.06;5032909;28;20200;-45
2023/07/25 06:28:42;;;;;;;4.68;0.90;;;;;;;25.34;37.07;100837.38;5032190;28;20554;-44
2023/07/25 06:31:07;;;;;;;6.28;0.90;;;;;;;27.22;32.86;100826.69;5031964;28;20407;-48
2023/07/25 06:33:33;;;;;;;4.43;1.00;;;;;;;26.35;34.69;100835.03;5032232;28;20041;-46
2023/07/25 06:35:58;;;;;;;3.38;1.10;;;;;;;25.63;35.30;100833.31;5032840;28;20450;-46
2023/07/25 06:38:24;;;;;;;4.95;1.08;;;;;;;25.22;36.26;100835.31;5032617;28;20071;-48
2023/07/25 06:40:49;;;;;;;3.58;0.90;;;;;;;25.45;38.00;100839.53;5031978;28;21625;-44
2023/07/25 06:43:14;;;;;;;1.92;0.82;;;;;;;26.11;34.79;100832.66;5033104;28;20030;-45
2023/07/25 06:45:40;;;;;;;4.15;1.05;;;;;;;25.45;35.50;100831.53;5032297;28;20067;-43
2023/07/25 06:48:05;;;;;;;4.05;1.10;;;;;;;26.05;35.44;100832.97;5032937;28;20042;-43
2023/07/25 06:50:33;;;;;;;2.50;0.70;;;;;;;26.32;34.26;100835.19;5032337;28;20046;-46
2023/07/25 06:52:58;;;;;;;3.85;1.00;;;;;;;25.87;35.37;100833.91;5033114;28;20644;-50
2023/07/25 06:55:24;;;;;;;4.35;0.90;;;;;;;26.55;33.62;100837.50;5031715;28;20033;-45
2023/07/25 06:57:49;;;;;;;3.25;0.80;;;;;;;27.75;31.07;100838.88;5032659;28;20046;-45
2023/07/25 07:00:14;;;;;;;4.90;1.23;;;;;;;26.97;33.38;100837.03;5032512;28;20034;-43
2023/07/25 07:02:41;;;;;;;4.20;1.00;;;;;;;24.92;35.63;100847.41;5032101;28;20037;-47
2023/07/25 07:05:06;;;;;;;3.67;1.00;;;;;;;23.94;38.07;100840.16;5032598;28;20095;-45
2023/07/25 07:07:33;;;;;;;4.18;1.02;;;;;;;23.15;40.23;100843.38;5031107;28;20041;-48
2023/07/25 07:09:58;;;;;;;4.43;1.00;;;;;;;22.94;41.35;100849.50;5032334;28;20029;-45
2023/07/25 07:12:23;;;;;;;7.32;1.08;;;;;;;22.36;41.54;100854.28;5030991;28;20083;-47
2023/07/25 07:14:49;;;;;;;5.22;0.95;;;;;;;22.50;41.81;100856.44;5031038;28;20057;-43
2023/07/25 07:17:14;;;;;;;7.53;1.20;;;;;;;22.50;42.46;100865.28;5032633;28;20037;-44
2023/07/25 07:19:39;;;;;;;2.85;1.00;;;;;;;22.82;40.95;100853.47;5031437;28;20079;-45
2023/07/25 07:22:05;;;;;;;4.75;1.30;;;;;;;23.05;41.20;100857.97;5031232;28;20041;-45
2023/07/25 07:24:30;;;;;;;7.13;1.20;;;;;;;23.12;40.24;100855.91;5031756;28;20108;-47
2023/07/25 07:26:55;;;;;;;3.03;0.70;;;;;;;23.12;39.92;100850.59;5031667;28;20037;-47
2023/07/25 07:29:21;;;;;;;4.30;1.00;;;;;;;24.44;37.58;100847.81;5031655;28;20492;-46
2023/07/25 07:31:46;;;;;;;5.53;1.17;;;;;;;25.03;36.15;100845.09;5030547;28;20551;-48
2023/07/25 07:34:14;;;;;;;4.47;0.73;;;;;;;25.36;35.95;100845.31;5031906;28;20033;-46
2023/07/25 07:36:40;;;;;;;3.85;0.80;;;;;;;24.58;36.77;100843.56;5031104;28;20061;-43
2023/07/25 07:39:06;;;;;;;11.90;3.88;;;;;;;23.85;36.44;100851.19;5031607;28;20083;-45
2023/07/25 07:41:31;;;;;;;4.03;1.10;;;;;;;24.16;36.12;100853.41;5030764;28;20100;-44
2023/07/25 07:43:57;;;;;;;5.07;0.95;;;;;;;24.13;36.20;100850.91;5031609;28;20029;-48
2023/07/25 07:46:22;;;;;;;4.88;0.90;;;;;;;24.03;36.41;100852.25;5031746;28;20040;-43
2023/07/25 07:48:47;;;;;;;2.75;0.70;;;;;;;23.39;37.86;100855.72;5030773;28;20030;-45
2023/07/25 07:51:12;;;;;;;38.70;19.20;;;;;;;22.70;40.31;100858.34;5030176;28;20029;-47
2023/07/25 07:53:38;;;;;;;4.05;1.30;;;;;;;23.49;38.69;100863.34;5031587;28;20072;-47
2023/07/25 07:56:07;;;;;;;3.03;0.90;;;;;;;24.61;36.76;100863.91;5031258;28;20053;-45
2023/07/25 07:58:32;;;;;;;3.63;0.90;;;;;;;25.27;35.71;100862.63;5030762;28;20045;-44
2023/07/25 08:00:58;;;;;;;2.85;0.65;;;;;;;25.40;33.79;100860.25;5030678;28;20029;-45
2023/07/25 08:03:23;;;;;;;3.60;0.80;;;;;;;24.17;37.22;100860.50;5030716;28;20033;-45
2023/07/25 08:05:56;;;;;;;5.57;0.80;;;;;;;25.74;35.79;100868.34;5029610;28;20040;-44
2023/07/25 08:08:21;;;;;;;2.40;0.75;;;;;;;26.57;33.10;100865.91;5030816;28;20557;-51
2023/07/25 08:10:46;;;;;;;4.32;0.68;;;;;;;24.60;35.52;100873.69;5020913;28;20038;-42
2023/07/25 08:13:12;;;;;;;6.43;1.00;;;;;;;23.74;37.44;100867.63;5029755;28;20026;-48
2023/07/25 08:15:37;;;;;;;4.85;0.80;;;;;;;24.56;36.51;100871.25;5021826;28;20046;-42
2023/07/25 08:18:02;;;;;;;4.10;0.90;;;;;;;25.07;35.47;100869.84;5030381;28;20038;-46
2023/07/25 08:20:28;;;;;;;6.20;1.00;;;;;;;24.15;37.13;100870.38;5029299;28;20059;-46
2023/07/25 08:22:53;;;;;;;3.42;1.08;;;;;;;24.05;37.50;100875.19;5029998;28;20029;-44
2023/07/25 08:25:18;;;;;;;2.95;1.00;;;;;;;24.61;36.65;100880.78;5030300;28;20033;-44
2023/07/25 08:27:43;;;;;;;5.35;0.90;;;;;;;24.33;36.33;100874.94;5029724;28;20510;-46
2023/07/25 08:30:09;;;;;;;3.85;0.80;;;;;;;23.60;37.21;100875.31;5030546;28;20030;-48
2023/07/25 08:32:34;;;;;;;5.10;0.93;;;;;;;22.67;40.38;100884.13;5029173;28;20415;-47
2023/07/25 08:35:00;;;;;;;2.65;0.90;;;;;;;22.17;41.14;100893.00;5030208;28;20061;-45
2023/07/25 08:37:25;;;;;;;5.55;0.80;;;;;;;22.48;41.06;100882.19;5030798;28;20045;-52
2023/07/25 08:39:50;;;;;;;3.05;0.80;;;;;;;21.84;41.46;100887.84;5030621;28;20467;-47
2023/07/25 08:42:17;;;;;;;7.65;1.10;;;;;;;21.92;41.73;100903.53;5030537;28;20137;-47
2023/07/25 08:44:44;;;;;;;8.40;1.00;;;;;;;22.34;42.08;100895.94;5030745;28;20034;-46
2023/07/25 08:47:17;;;;;;;6.63;0.90;;;;;;;21.86;41.15;100904.63;5031210;28;20033;-49
2023/07/25 08:49:46;;;;;;;3.33;0.90;;;;;;;22.01;41.38;100905.94;5022154;28;20197;-45
2023/07/25 08:52:14;;;;;;;3.95;0.85;;;;;;;22.24;40.72;100916.66;5012990;28;20045;-47
2023/07/25 08:54:43;;;;;;;3.83;0.82;;;;;;;21.68;42.60;100912.28;5029955;28;20030;-44
2023/07/25 08:57:09;;;;;;;4.97;0.80;;;;;;;21.61;40.92;100919.56;5030534;28;20041;-44
2023/07/25 08:59:35;;;;;;;3.85;0.90;;;;;;;21.39;42.19;100915.84;5030048;28;20049;-44
2023/07/25 09:02:01;;;;;;;3.40;1.00;;;;;;;21.94;40.88;100917.66;5030117;28;20518;-45
2023/07/25 09:04:27;;;;;;;6.28;1.20;;;;;;;21.85;41.04;100915.28;5030476;28;20038;-44
2023/07/25 09:06:53;;;;;;;2.05;0.77;;;;;;;22.54;37.80;100917.38;5029086;28;20022;-50
2023/07/25 09:09:19;;;;;;;5.13;0.80;;;;;;;22.98;37.68;100913.16;5029905;28;20092;-45
2023/07/25 09:11:45;;;;;;;3.53;0.75;;;;;;;22.69;37.68;100923.91;5029003;28;20037;-43
2023/07/25 09:14:13;;;;;;;3.17;0.90;;;;;;;22.43;38.46;100927.53;5030693;28;20057;-45
2023/07/25 09:16:39;;;;;;;4.35;0.70;;;;;;;23.16;37.47;100924.03;5030555;28;20060;-49
2023/07/25 09:19:04;;;;;;;6.45;1.13;;;;;;;23.15;36.57;100924.94;5031412;28;20491;-43
2023/07/25 09:21:29;;;;;;;6.15;0.90;;;;;;;23.18;37.57;100927.47;5030460;28;20399;-46
2023/07/25 09:23:59;;;;;;;3.85;1.00;;;;;;;23.34;38.35;100932.19;5029309;28;20108;-44
2023/07/25 09:26:29;;;;;;;3.80;0.80;;;;;;;22.90;36.79;100933.84;5030413;28;20033;-44
2023/07/25 09:28:59;;;;;;;2.92;0.73;;;;;;;23.35;35.37;100936.56;5030423;28;20021;-45
2023/07/25 09:31:25;;;;;;;2.65;0.80;;;;;;;23.40;35.97;100939.06;5029739;28;20072;-43
2023/07/25 09:33:53;;;;;;;1.50;0.75;;;;;;;23.37;37.06;100948.00;5029035;28;20408;-45
2023/07/25 09:36:19;;;;;;;3.47;0.80;;;;;;;22.97;38.01;100953.97;5030149;28;20500;-49
2023/07/25 09:38:49;;;;;;;2.95;0.90;;;;;;;22.72;39.97;100962.81;5028653;28;20041;-50
2023/07/25 09:41:15;;;;;;;2.63;0.70;;;;;;;23.28;38.73;100959.00;5028652;28;20034;-45
2023/07/25 09:43:41;;;;;;;2.10;0.80;;;;;;;22.71;38.60;100964.63;5029051;28;20060;-44
2023/07/25 09:46:06;;;;;;;2.47;0.82;;;;;;;21.75;40.50;100973.09;5029083;28;20037;-45
2023/07/25 09:48:32;;;;;;;2.60;0.70;;;;;;;23.00;39.39;100971.56;5028697;28;20124;-46
2023/07/25 09:50:58;;;;;;;4.22;0.98;;;;;;;22.39;39.55;100973.69;5029442;28;20029;-48
2023/07/25 09:53:24;;;;;;;1.77;0.82;;;;;;;22.31;39.75;100973.09;5029684;28;20049;-43
2023/07/25 09:55:49;;;;;;;2.17;0.80;;;;;;;22.51;39.24;100969.75;5033333;28;20469;-47
2023/07/25 09:58:14;;;;;;;2.75;0.70;;;;;;;23.40;38.55;100970.97;5031499;28;20088;-43
2023/07/25 10:00:40;;;;;;;2.80;0.70;;;;;;;23.15;39.76;100978.13;5028624;28;20083;-43
2023/07/25 10:03:10;;;;;;;5.53;0.95;;;;;;;22.04;41.03;100977.50;5029097;28;20090;-47
2023/07/25 10:05:41;;;;;;;2.35;0.77;;;;;;;21.81;40.83;100980.00;5028910;28;20661;-47
2023/07/25 10:08:07;;;;;;;3.35;0.90;;;;;;;22.16;41.40;100977.13;5029394;28;20033;-47
2023/07/25 10:10:33;;;;;;;3.92;1.00;;;;;;;21.99;41.16;100973.28;5028250;28;20127;-44
2023/07/25 10:12:58;;;;;;;2.72;0.90;;;;;;;22.43;40.59;100972.69;5029410;28;20068;-45
2023/07/25 10:15:24;;;;;;;3.10;0.70;;;;;;;22.91;40.46;100982.56;5029165;28;20080;-50
2023/07/25 10:17:49;;;;;;;2.95;0.80;;;;;;;23.11;38.73;100981.84;5028863;28;20133;-43
2023/07/25 10:20:24;;;;;;;2.60;0.88;;;;;;;23.49;38.08;100988.41;5028382;28;20033;-39
2023/07/25 10:22:50;;;;;;;3.25;0.73;;;;;;;23.36;38.60;100988.84;5028765;28;20566;-44
2023/07/25 10:25:26;;;;;;;4.90;0.80;;;;;;;23.69;38.13;100977.88;5029299;28;20026;-46
2023/07/25 10:27:58;;;;;;;3.60;0.88;;;;;;;24.16;35.67;100970.63;5028785;28;20041;-44
2023/07/25 10:30:25;;;;;;;2.85;0.80;;;;;;;23.10;38.41;100975.66;5028280;28;20100;-44
2023/07/25 10:32:54;;;;;;;3.05;0.82;;;;;;;23.57;39.28;100981.00;5028538;28;20049;-45
2023/07/25 10:35:58;;;;;;;2.53;0.82;;;;;;;23.67;37.88;100979.72;5028770;28;20120;-45
2023/07/25 10:38:34;;;;;;;7.78;0.93;;;;;;;23.52;36.71;100973.22;5028522;28;20041;-47
2023/07/25 10:41:00;;;;;;;1.58;0.55;;;;;;;24.14;35.52;100967.19;5028219;28;20076;-47
2023/07/25 10:43:49;;;;;;;2.42;0.70;;;;;;;24.21;37.21;100977.53;5028884;28;20092;-46
2023/07/25 10:46:19;;;;;;;4.60;0.70;;;;;;;23.18;38.70;100988.66;5016883;28;20059;-46
2023/07/25 10:48:46;;;;;;;2.42;0.70;;;;;;;22.39;40.89;100988.75;5032287;28;20038;-46
2023/07/25 10:51:14;;;;;;;3.83;0.90;;;;;;;22.17;42.13;100994.78;5031954;28;20048;-46
2023/07/25 10:53:40;;;;;;;3.40;0.80;;;;;;;22.13;42.05;100990.50;5032028;28;20044;-46
2023/07/25 10:56:06;;;;;;;3.58;0.80;;;;;;;22.99;40.76;100999.94;5032391;28;20116;-46
2023/07/25 10:58:33;;;;;;;4.85;0.88;;;;;;;23.58;40.05;100996.94;5031975;28;20037;-49
2023/07/25 11:01:00;;;;;;;2.85;0.70;;;;;;;23.39;38.44;100998.50;5031729;28;20042;-46
2023/07/25 11:03:31;;;;;;;5.80;0.82;;;;;;;22.92;40.21;101000.25;5032242;28;20792;-47
2023/07/25 11:06:08;;;;;;;3.85;0.60;;;;;;;21.90;42.73;101003.59;5031804;28;20037;-46
2023/07/25 11:08:38;;;;;;;2.67;0.68;;;;;;;22.77;40.96;101000.78;5032019;28;20046;-43
2023/07/25 11:11:07;;;;;;;4.65;0.75;;;;;;;22.46;41.63;101004.44;5031947;28;20033;-44
2023/07/25 11:13:34;;;;;;;2.45;0.63;;;;;;;22.47;40.25;101000.88;5032064;28;20067;-45
2023/07/25 11:16:03;;;;;;;3.03;0.80;;;;;;;23.20;39.29;101005.44;5032393;28;20043;-48
2023/07/25 11:18:28;;;;;;;4.75;0.90;;;;;;;22.25;39.82;101003.38;5032401;28;20072;-44